Time;durP1;ratioP1;P1;durP2;ratioP2;P2;SDS_P1;SDS_P2;PMS_P1;PMS_P2;Temp;Humidity;BMP_temperature;BMP_pressure;BME280_temperature;BME280_humidity;BME280_pressure;Samples;Min_cycle;Max_cycle;Signal;HPM_P1;HPM_P2
2023/06/17 00:00:23;;;;;;;8.65;4.85;;;17.70;72.30;;;;;;5020764;28;20021;-74
2023/06/17 00:02:50;;;;;;;7.25;4.60;;;17.70;73.00;;;;;;5024708;28;20083;-76
2023/06/17 00:05:15;;;;;;;9.30;5.03;;;17.60;72.40;;;;;;5028231;28;20026;-75
2023/06/17 00:07:41;;;;;;;7.53;5.03;;;17.60;72.60;;;;;;5025456;28;20056;-75
2023/06/17 00:10:08;;;;;;;5.95;4.03;;;17.60;72.80;;;;;;5024751;28;20021;-73
2023/06/17 00:12:34;;;;;;;7.63;4.93;;;17.60;72.70;;;;;;5021226;28;20488;-74
2023/06/17 00:15:04;;;;;;;6.78;4.88;;;17.60;72.80;;;;;;5023036;28;20104;-74
2023/06/17 00:17:30;;;;;;;6.68;4.43;;;17.60;72.70;;;;;;4996140;28;20048;-74
2023/06/17 00:20:11;;;;;;;6.88;4.68;;;17.60;72.60;;;;;;5017246;28;20033;-74
2023/06/17 00:22:39;;;;;;;7.55;4.70;;;17.60;72.70;;;;;;5008205;28;20025;-74
2023/06/17 00:25:08;;;;;;;11.70;4.22;;;17.50;72.70;;;;;;5006296;28;20026;-74
2023/06/17 00:27:33;;;;;;;6.68;4.88;;;17.50;72.80;;;;;;5007405;28;20025;-74
2023/06/17 00:29:59;;;;;;;7.50;4.55;;;17.50;73.00;;;;;;5007590;28;20033;-74
2023/06/17 00:32:29;;;;;;;6.38;4.45;;;17.50;73.00;;;;;;5006284;28;20034;-74
2023/06/17 00:34:55;;;;;;;8.00;4.40;;;17.40;72.90;;;;;;5006649;28;20022;-74
2023/06/17 00:37:20;;;;;;;8.35;4.60;;;17.40;73.00;;;;;;5005460;28;20019;-75
2023/06/17 00:39:46;;;;;;;5.75;4.20;;;17.40;73.10;;;;;;5004692;28;20034;-74
2023/06/17 00:42:12;;;;;;;8.23;4.18;;;17.40;73.30;;;;;;5002913;28;20030;-74
2023/06/17 00:44:39;;;;;;;7.03;4.22;;;17.30;73.40;;;;;;5003992;28;20030;-75
2023/06/17 00:47:06;;;;;;;9.18;4.75;;;17.30;73.40;;;;;;5003370;28;20050;-75
2023/06/17 00:49:36;;;;;;;9.63;4.88;;;17.30;73.50;;;;;;5006645;28;20026;-74
2023/06/17 00:52:07;;;;;;;6.47;5.18;;;17.20;73.50;;;;;;5021024;28;20100;-74
2023/06/17 00:54:38;;;;;;;8.45;4.93;;;17.20;73.70;;;;;;5003660;28;20050;-74
2023/06/17 00:57:10;;;;;;;7.32;4.72;;;17.20;73.70;;;;;;5006368;28;20041;-75
2023/06/17 00:59:38;;;;;;;6.35;4.38;;;17.20;73.90;;;;;;5010649;28;20026;-74
2023/06/17 01:02:06;;;;;;;6.85;4.57;;;17.10;74.00;;;;;;5006119;28;20067;-75
2023/06/17 01:04:33;;;;;;;8.05;4.85;;;17.10;74.10;;;;;;5005394;28;20022;-75
2023/06/17 01:07:03;;;;;;;8.10;4.32;;;17.00;74.30;;;;;;5006674;28;20056;-75
2023/06/17 01:09:34;;;;;;;8.55;5.13;;;17.00;75.00;;;;;;5009544;28;20116;-75
2023/06/17 01:12:02;;;;;;;10.40;4.97;;;16.90;74.70;;;;;;5008905;28;20049;-74
2023/06/17 01:14:30;;;;;;;8.88;4.55;;;16.90;74.80;;;;;;5008170;28;20896;-75
2023/06/17 01:16:56;;;;;;;6.05;4.93;;;16.90;75.10;;;;;;5019063;28;20392;-74
2023/06/17 01:19:24;;;;;;;6.65;4.30;;;16.80;75.70;;;;;;5005776;28;20523;-75
2023/06/17 01:21:53;;;;;;;10.27;4.78;;;16.80;75.10;;;;;;5007181;28;20014;-75
2023/06/17 01:24:27;;;;;;;9.45;4.57;;;16.80;75.10;;;;;;5007499;28;20484;-75
2023/06/17 01:26:57;;;;;;;8.55;4.60;;;16.80;75.20;;;;;;5005426;28;20033;-75
2023/06/17 01:29:23;;;;;;;7.82;4.53;;;16.80;75.30;;;;;;5011221;28;20689;-75
2023/06/17 01:31:57;;;;;;;6.03;4.38;;;16.70;75.30;;;;;;5007271;28;20026;-75
2023/06/17 01:34:48;;;;;;;7.93;4.47;;;16.70;75.60;;;;;;5008133;28;20081;-74
2023/06/17 01:37:20;;;;;;;7.57;4.65;;;16.70;75.70;;;;;;5009213;28;20046;-75
2023/06/17 01:39:49;;;;;;;6.95;3.97;;;16.70;75.80;;;;;;5010209;28;21371;-73
2023/06/17 01:42:20;;;;;;;7.45;4.65;;;16.70;75.80;;;;;;5007183;28;20025;-73
2023/06/17 01:44:47;;;;;;;6.70;4.90;;;16.60;75.80;;;;;;5009521;28;20033;-73
2023/06/17 01:47:13;;;;;;;6.25;4.38;;;16.60;75.70;;;;;;5011911;28;20088;-73
2023/06/17 01:49:39;;;;;;;6.63;4.20;;;16.60;75.60;;;;;;5006910;28;20026;-73
2023/06/17 01:52:07;;;;;;;7.03;4.70;;;16.50;75.50;;;;;;5004727;28;20029;-73
2023/06/17 01:54:33;;;;;;;6.10;4.10;;;16.50;75.60;;;;;;5007106;28;20026;-74
2023/06/17 01:57:00;;;;;;;7.45;4.35;;;16.50;75.60;;;;;;5007922;28;20018;-72
2023/06/17 01:59:26;;;;;;;9.55;5.20;;;16.50;75.80;;;;;;5006183;28;20400;-73
2023/06/17 02:01:52;;;;;;;5.75;4.40;;;16.50;75.90;;;;;;5011275;28;20029;-72
2023/06/17 02:04:18;;;;;;;6.18;4.15;;;16.40;76.00;;;;;;5005143;28;20038;-72
2023/06/17 02:06:43;;;;;;;7.70;4.13;;;16.30;76.20;;;;;;5007611;28;20057;-73
2023/06/17 02:09:09;;;;;;;8.32;4.28;;;16.30;76.30;;;;;;5007883;28;20057;-73
2023/06/17 02:11:34;;;;;;;6.63;4.07;;;16.30;76.50;;;;;;5008215;28;20084;-73
2023/06/17 02:14:00;;;;;;;6.82;4.68;;;16.30;76.60;;;;;;5004034;28;20034;-73
2023/06/17 02:16:26;;;;;;;12.18;5.68;;;16.20;76.80;;;;;;5009520;28;20030;-73
2023/06/17 02:18:54;;;;;;;9.07;5.72;;;16.20;77.40;;;;;;5005310;28;20054;-73
2023/06/17 02:21:20;;;;;;;12.05;6.88;;;16.20;78.10;;;;;;5010467;28;20061;-73
2023/06/17 02:23:48;;;;;;;12.02;6.90;;;16.20;79.00;;;;;;5008738;28;20076;-73
2023/06/17 02:26:16;;;;;;;11.80;7.40;;;16.10;79.70;;;;;;5010814;28;20100;-72
2023/06/17 02:28:42;;;;;;;11.48;7.10;;;16.00;80.00;;;;;;5009431;28;20029;-72
2023/06/17 02:31:08;;;;;;;10.32;6.90;;;16.00;80.50;;;;;;5008388;28;20474;-73
2023/06/17 02:33:34;;;;;;;11.48;6.43;;;15.90;80.70;;;;;;5009372;28;20034;-73
2023/06/17 02:36:00;;;;;;;11.45;6.72;;;15.90;80.90;;;;;;5008307;28;20480;-73
2023/06/17 02:38:26;;;;;;;11.52;6.78;;;15.90;81.10;;;;;;5005593;28;20025;-73
2023/06/17 02:40:52;;;;;;;10.07;6.35;;;15.80;81.10;;;;;;5005808;28;20042;-73
2023/06/17 02:43:17;;;;;;;9.70;5.60;;;15.80;80.90;;;;;;5007428;28;20322;-73
2023/06/17 02:45:43;;;;;;;10.55;6.43;;;15.80;80.70;;;;;;5005364;28;20038;-73
2023/06/17 02:48:09;;;;;;;11.07;5.03;;;15.80;80.30;;;;;;5007737;28;20022;-73
2023/06/17 02:50:35;;;;;;;8.40;5.68;;;15.80;79.80;;;;;;5011072;28;20030;-72
2023/06/17 02:53:04;;;;;;;7.57;4.75;;;15.80;79.30;;;;;;5003279;28;20040;-71
2023/06/17 02:55:30;;;;;;;6.78;4.07;;;15.70;79.30;;;;;;5007463;28;20486;-72
2023/06/17 02:57:55;;;;;;;8.82;4.93;;;15.70;79.20;;;;;;5007352;28;20025;-72
2023/06/17 03:00:21;;;;;;;8.88;5.63;;;15.70;79.30;;;;;;5007055;28;20409;-72
2023/06/17 03:02:47;;;;;;;8.13;6.38;;;15.60;79.70;;;;;;5010812;28;20029;-72
2023/06/17 03:05:14;;;;;;;11.13;6.70;;;15.50;80.50;;;;;;5007679;28;20420;-72
2023/06/17 03:07:40;;;;;;;10.90;5.65;;;15.50;81.10;;;;;;5007386;28;20021;-72
2023/06/17 03:10:07;;;;;;;11.75;5.60;;;15.40;81.10;;;;;;5004681;28;20069;-72
2023/06/17 03:12:33;;;;;;;12.65;6.57;;;15.40;81.30;;;;;;5005685;28;20030;-71
2023/06/17 03:14:58;;;;;;;11.77;6.30;;;15.40;81.70;;;;;;5007054;28;20053;-72
2023/06/17 03:17:24;;;;;;;12.98;6.82;;;15.40;82.10;;;;;;5006821;28;20378;-71
2023/06/17 03:19:51;;;;;;;8.20;5.82;;;15.40;82.30;;;;;;5018011;28;20034;-72
2023/06/17 03:22:17;;;;;;;9.32;6.28;;;15.40;82.30;;;;;;5006820;28;20072;-73
2023/06/17 03:24:42;;;;;;;7.90;5.57;;;15.40;82.20;;;;;;5003590;28;20026;-73
2023/06/17 03:27:08;;;;;;;8.35;5.40;;;15.40;82.00;;;;;;5002461;28;20126;-73
2023/06/17 03:29:40;;;;;;;8.25;5.30;;;15.40;81.60;;;;;;5000599;28;20034;-72
2023/06/17 03:32:06;;;;;;;7.68;4.57;;;15.40;81.30;;;;;;5001686;28;20044;-72
2023/06/17 03:34:32;;;;;;;8.30;5.82;;;15.40;81.10;;;;;;5007250;28;20369;-72
2023/06/17 03:36:58;;;;;;;8.25;5.28;;;15.30;80.90;;;;;;5002987;28;20037;-73
2023/06/17 03:39:24;;;;;;;6.97;4.68;;;15.40;80.70;;;;;;5005082;28;20033;-72
2023/06/17 03:41:49;;;;;;;7.90;5.10;;;15.30;80.70;;;;;;5005214;28;20120;-73
2023/06/17 03:44:15;;;;;;;9.80;5.07;;;15.30;80.70;;;;;;5000853;28;20105;-73
2023/06/17 03:46:41;;;;;;;8.13;4.75;;;15.30;80.80;;;;;;5007854;28;20026;-74
2023/06/17 03:49:07;;;;;;;7.40;4.38;;;15.40;80.90;;;;;;5005884;28;20026;-73
2023/06/17 03:51:33;;;;;;;8.80;5.05;;;15.30;80.70;;;;;;5008130;28;20034;-74
2023/06/17 03:53:58;;;;;;;6.13;4.20;;;15.30;81.00;;;;;;5003451;28;20026;-73
2023/06/17 03:56:26;;;;;;;8.30;5.13;;;15.40;81.10;;;;;;5007836;28;20026;-73
2023/06/17 03:58:53;;;;;;;12.45;5.68;;;15.30;81.30;;;;;;5005588;28;20385;-74
2023/06/17 04:01:19;;;;;;;11.15;5.90;;;15.40;81.80;;;;;;5003967;28;20064;-73
2023/06/17 04:03:45;;;;;;;9.50;5.22;;;15.30;82.20;;;;;;5002834;28;20026;-73
2023/06/17 04:06:11;;;;;;;10.35;6.25;;;15.30;82.60;;;;;;5003916;28;20096;-73
2023/06/17 04:08:37;;;;;;;10.40;6.20;;;15.40;82.80;;;;;;5005072;28;20499;-74
2023/06/17 04:11:03;;;;;;;10.15;6.03;;;15.40;83.30;;;;;;5007244;28;20017;-73
2023/06/17 04:13:28;;;;;;;9.32;5.18;;;15.30;83.30;;;;;;5002874;28;20841;-74
2023/06/17 04:15:55;;;;;;;9.00;6.00;;;15.40;83.30;;;;;;5002767;28;20024;-75
2023/06/17 04:18:20;;;;;;;9.38;5.57;;;15.40;83.30;;;;;;5006146;28;20075;-74
2023/06/17 04:20:46;;;;;;;9.63;5.65;;;15.40;83.20;;;;;;5000633;28;20101;-73
2023/06/17 04:23:12;;;;;;;12.52;4.88;;;15.40;82.80;;;;;;5002645;28;20072;-74
2023/06/17 04:25:37;;;;;;;6.40;4.68;;;15.50;82.50;;;;;;5005902;28;20057;-73
2023/06/17 04:28:06;;;;;;;7.82;4.82;;;15.50;82.10;;;;;;5004658;28;20026;-74
2023/06/17 04:30:32;;;;;;;7.40;4.53;;;15.50;81.70;;;;;;4999599;28;20026;-74
2023/06/17 04:32:59;;;;;;;7.18;5.22;;;15.60;82.10;;;;;;5004916;28;20068;-74
2023/06/17 04:35:26;;;;;;;8.57;5.43;;;15.60;81.30;;;;;;4996743;28;20041;-74
2023/06/17 04:37:55;;;;;;;8.80;5.65;;;15.70;81.20;;;;;;5007742;28;20049;-74
2023/06/17 04:40:25;;;;;;;8.07;4.82;;;15.80;81.10;;;;;;5006427;28;20029;-74
2023/06/17 04:42:51;;;;;;;7.43;5.40;;;15.80;80.70;;;;;;5002912;28;20058;-74
2023/06/17 04:45:17;;;;;;;7.90;5.38;;;15.90;80.60;;;;;;5003490;28;20022;-74
2023/06/17 04:47:46;;;;;;;9.25;5.15;;;16.10;80.40;;;;;;5000802;28;20619;-74
2023/06/17 04:50:16;;;;;;;7.63;5.00;;;16.10;80.10;;;;;;5005204;28;20153;-74
2023/06/17 04:52:51;;;;;;;7.97;5.10;;;16.20;80.00;;;;;;4998553;28;20033;-74
2023/06/17 04:55:18;;;;;;;8.00;5.18;;;16.20;79.90;;;;;;5005681;28;20145;-74
2023/06/17 04:57:44;;;;;;;9.73;5.30;;;16.30;79.70;;;;;;5003241;28;20014;-74
2023/06/17 05:00:12;;;;;;;8.60;5.05;;;16.40;79.50;;;;;;4996919;28;20115;-76
2023/06/17 05:02:38;;;;;;;8.02;5.40;;;16.50;79.50;;;;;;5003313;28;20116;-74
2023/06/17 05:05:07;;;;;;;7.13;4.97;;;16.60;79.20;;;;;;5003525;28;20161;-73
2023/06/17 05:07:33;;;;;;;10.13;6.78;;;16.70;79.00;;;;;;4999300;28;20038;-74
2023/06/17 05:10:00;;;;;;;9.93;5.95;;;16.80;79.10;;;;;;5000992;28;20071;-74
2023/06/17 05:12:26;;;;;;;10.73;6.30;;;16.90;79.10;;;;;;5005401;28;20037;-73
2023/06/17 05:14:51;;;;;;;12.25;6.35;;;17.00;78.90;;;;;;5005993;28;20041;-74
2023/06/17 05:17:17;;;;;;;9.77;6.45;;;17.00;79.20;;;;;;5006594;28;20396;-73
2023/06/17 05:19:43;;;;;;;9.95;7.00;;;17.10;78.40;;;;;;5005544;28;20026;-74
2023/06/17 05:22:08;;;;;;;9.38;6.68;;;17.20;78.60;;;;;;5003399;28;20038;-74
2023/06/17 05:24:34;;;;;;;12.05;7.05;;;17.20;78.40;;;;;;5008244;28;20485;-73
2023/06/17 05:26:59;;;;;;;10.25;6.75;;;17.30;78.10;;;;;;5005450;28;20021;-73
2023/06/17 05:29:25;;;;;;;10.25;6.60;;;17.30;77.70;;;;;;5007489;28;20030;-73
2023/06/17 05:31:51;;;;;;;9.30;6.15;;;17.30;77.30;;;;;;5003095;28;20045;-73
2023/06/17 05:34:17;;;;;;;8.90;6.45;;;17.30;77.20;;;;;;5020833;28;20404;-74
2023/06/17 05:36:43;;;;;;;9.63;6.50;;;17.40;77.30;;;;;;5003888;28;20026;-73
2023/06/17 05:39:08;;;;;;;10.02;6.20;;;17.40;77.30;;;;;;5003907;28;20085;-76
2023/06/17 05:41:34;;;;;;;13.27;6.82;;;17.50;77.40;;;;;;5006147;28;20065;-73
2023/06/17 05:44:00;;;;;;;11.20;6.70;;;17.50;77.10;;;;;;5004187;28;20055;-69
2023/06/17 05:46:25;;;;;;;12.57;6.88;;;17.50;77.00;;;;;;5017676;28;20539;-69
2023/06/17 05:48:51;;;;;;;14.85;6.68;;;17.60;77.40;;;;;;5005814;28;20022;-71
2023/06/17 05:51:17;;;;;;;9.25;6.80;;;17.70;77.30;;;;;;5004620;28;20069;-70
2023/06/17 05:53:42;;;;;;;10.95;7.47;;;17.80;76.90;;;;;;5004018;28;20054;-70
2023/06/17 05:56:09;;;;;;;12.77;6.90;;;17.80;76.90;;;;;;4998609;28;20035;-72
2023/06/17 05:58:35;;;;;;;9.15;6.47;;;17.90;76.70;;;;;;5004161;28;20037;-71
2023/06/17 06:01:01;;;;;;;8.10;5.97;;;18.00;76.60;;;;;;4997210;28;20034;-72
2023/06/17 06:03:27;;;;;;;11.65;7.30;;;18.20;76.40;;;;;;5001262;28;20041;-72
2023/06/17 06:05:52;;;;;;;11.15;6.82;;;18.30;76.10;;;;;;5003010;28;20037;-71
2023/06/17 06:08:18;;;;;;;11.65;7.82;;;18.40;75.90;;;;;;5000442;28;20026;-72
2023/06/17 06:10:44;;;;;;;11.13;6.72;;;18.50;75.90;;;;;;5018475;28;20026;-73
2023/06/17 06:13:10;;;;;;;10.88;7.47;;;18.50;75.50;;;;;;5000065;28;20102;-72
2023/06/17 06:15:36;;;;;;;36.63;10.70;;;18.50;75.60;;;;;;5001630;28;20056;-73
2023/06/17 06:18:02;;;;;;;21.02;8.15;;;18.60;75.60;;;;;;5002189;28;20254;-73
2023/06/17 06:20:28;;;;;;;15.98;6.70;;;18.70;75.60;;;;;;4996985;28;20032;-72
2023/06/17 06:22:54;;;;;;;10.45;6.38;;;18.70;75.80;;;;;;5003499;28;20034;-73
2023/06/17 06:25:20;;;;;;;10.35;6.20;;;18.80;75.90;;;;;;5000318;28;20656;-73
2023/06/17 06:27:50;;;;;;;8.25;5.63;;;18.80;76.40;;;;;;5002166;28;20038;-74
2023/06/17 06:30:16;;;;;;;9.55;6.18;;;18.90;75.60;;;;;;5003700;28;20037;-72
2023/06/17 06:32:41;;;;;;;12.07;6.28;;;19.00;75.50;;;;;;4997006;28;20026;-75
2023/06/17 06:35:07;;;;;;;10.75;5.53;;;19.00;75.60;;;;;;5006527;28;20033;-77
2023/06/17 06:37:33;;;;;;;9.45;5.60;;;19.00;75.40;;;;;;5007221;28;20440;-74
2023/06/17 06:39:59;;;;;;;7.85;5.15;;;19.10;75.30;;;;;;5006272;28;20458;-75
2023/06/17 06:42:25;;;;;;;26.10;6.63;;;19.20;75.30;;;;;;5004219;28;20049;-74
2023/06/17 06:44:51;;;;;;;19.88;6.63;;;19.30;75.40;;;;;;5003931;28;20123;-74
2023/06/17 06:47:18;;;;;;;14.05;6.28;;;19.30;75.50;;;;;;5007243;28;20081;-73
2023/06/17 06:49:43;;;;;;;8.50;5.82;;;19.40;75.40;;;;;;5003685;28;20089;-73
2023/06/17 06:52:09;;;;;;;15.55;6.93;;;19.40;75.30;;;;;;5005288;28;20085;-74
2023/06/17 06:54:35;;;;;;;9.60;5.57;;;19.40;75.40;;;;;;5005445;28;21689;-73
2023/06/17 06:57:01;;;;;;;8.38;5.68;;;19.50;75.60;;;;;;5000490;28;20583;-72
2023/06/17 06:59:26;;;;;;;12.10;6.28;;;19.50;75.50;;;;;;5003571;28;20050;-72
2023/06/17 07:01:52;;;;;;;13.93;6.60;;;19.60;75.30;;;;;;5004623;28;20026;-72
2023/06/17 07:04:20;;;;;;;6.18;4.72;;;19.70;76.00;;;;;;5004041;28;20157;-73
2023/06/17 07:06:46;;;;;;;7.90;5.25;;;19.70;75.40;;;;;;5007294;28;20025;-72
2023/06/17 07:09:14;;;;;;;8.60;4.68;;;19.80;75.30;;;;;;5020105;28;20492;-73
2023/06/17 07:11:39;;;;;;;27.08;6.78;;;20.00;75.40;;;;;;5005890;28;20026;-73
2023/06/17 07:14:06;;;;;;;9.23;5.40;;;20.00;74.90;;;;;;5001731;28;20522;-73
2023/06/17 07:16:32;;;;;;;8.48;5.32;;;20.10;74.60;;;;;;5007160;28;20018;-73
2023/06/17 07:18:57;;;;;;;10.52;5.03;;;20.10;74.40;;;;;;5005720;28;20520;-72
2023/06/17 07:21:23;;;;;;;9.18;5.30;;;20.20;74.60;;;;;;5005368;28;20073;-73
2023/06/17 07:23:49;;;;;;;6.22;4.72;;;20.30;74.90;;;;;;5006553;28;20107;-73
2023/06/17 07:26:14;;;;;;;11.80;5.05;;;20.30;74.80;;;;;;5004492;28;20524;-73
2023/06/17 07:28:40;;;;;;;9.82;4.93;;;20.40;74.30;;;;;;5008016;28;20026;-73
2023/06/17 07:31:06;;;;;;;9.60;5.32;;;20.40;73.70;;;;;;5007622;28;20076;-74
2023/06/17 07:33:32;;;;;;;20.50;6.63;;;20.50;73.40;;;;;;4978755;28;20063;-73
2023/06/17 07:35:58;;;;;;;8.77;5.13;;;20.60;73.60;;;;;;5004882;28;20035;-73
2023/06/17 07:38:24;;;;;;;8.82;5.15;;;20.70;73.30;;;;;;5005997;28;20034;-74
2023/06/17 07:40:50;;;;;;;21.25;6.75;;;20.70;73.50;;;;;;5026133;23;20039;-72
2023/06/17 07:43:16;;;;;;;7.32;4.90;;;20.80;73.00;;;;;;5001669;28;20057;-72
2023/06/17 07:45:42;;;;;;;6.38;5.10;;;20.90;72.10;;;;;;5007125;28;20048;-72
2023/06/17 07:48:08;;;;;;;13.35;5.88;;;21.00;71.60;;;;;;5005718;28;20025;-72
2023/06/17 07:50:34;;;;;;;12.27;6.15;;;21.00;71.90;;;;;;5007536;28;20519;-72
2023/06/17 07:52:59;;;;;;;16.85;6.55;;;21.10;72.20;;;;;;5004431;28;20113;-73
2023/06/17 07:55:26;;;;;;;7.45;5.47;;;21.10;72.00;;;;;;5002621;28;20181;-73
2023/06/17 07:57:52;;;;;;;11.63;5.07;;;21.20;71.60;;;;;;4987582;28;20026;-72
2023/06/17 08:00:18;;;;;;;9.70;5.80;;;21.30;71.30;;;;;;4988166;28;20134;-72
2023/06/17 08:02:44;;;;;;;9.75;5.85;;;21.40;70.90;;;;;;4989042;28;20105;-72
2023/06/17 08:05:09;;;;;;;11.07;5.28;;;21.40;71.00;;;;;;5006353;28;20025;-72
2023/06/17 08:07:36;;;;;;;15.63;6.07;;;21.60;69.30;;;;;;5003536;28;20030;-72
2023/06/17 08:10:01;;;;;;;9.02;5.38;;;21.70;69.20;;;;;;5005395;28;20030;-72
2023/06/17 08:12:27;;;;;;;7.97;4.85;;;21.80;68.50;;;;;;5005244;28;20099;-71
2023/06/17 08:14:53;;;;;;;12.85;4.80;;;21.80;68.60;;;;;;4987510;28;20029;-71
2023/06/17 08:17:18;;;;;;;8.50;5.10;;;21.90;68.30;;;;;;5008086;28;20045;-73
2023/06/17 08:19:44;;;;;;;8.68;4.97;;;22.00;67.70;;;;;;4987402;28;20030;-72
2023/06/17 08:22:10;;;;;;;7.55;4.35;;;22.10;67.70;;;;;;5003239;28;20029;-72
2023/06/17 08:24:36;;;;;;;7.38;4.82;;;22.20;67.00;;;;;;5006988;28;20468;-73
2023/06/17 08:27:02;;;;;;;7.78;5.03;;;22.20;66.20;;;;;;5009799;28;20030;-73
2023/06/17 08:29:28;;;;;;;7.28;4.85;;;22.30;66.10;;;;;;4987879;28;20032;-73
2023/06/17 08:31:54;;;;;;;10.15;5.05;;;22.40;65.10;;;;;;5005081;28;20400;-72
2023/06/17 08:34:21;;;;;;;7.18;4.50;;;22.50;65.40;;;;;;5007492;28;20030;-72
2023/06/17 08:36:49;;;;;;;7.43;4.32;;;22.60;65.50;;;;;;4989642;28;20026;-72
2023/06/17 08:39:15;;;;;;;7.72;5.18;;;22.60;64.70;;;;;;4989780;28;20455;-72
2023/06/17 08:41:42;;;;;;;7.35;4.82;;;22.70;65.00;;;;;;4987978;28;20036;-72
2023/06/17 08:44:13;;;;;;;7.45;4.60;;;22.80;64.80;;;;;;5007762;28;20064;-72
2023/06/17 08:46:43;;;;;;;8.25;4.50;;;22.90;64.00;;;;;;5005429;28;20057;-72
2023/06/17 08:49:10;;;;;;;10.73;5.57;;;22.90;63.40;;;;;;4986007;28;20029;-73
2023/06/17 08:51:36;;;;;;;7.75;4.97;;;23.00;63.20;;;;;;5006200;28;20105;-72
2023/06/17 08:54:02;;;;;;;11.32;5.18;;;23.20;62.30;;;;;;5001524;28;20033;-72
2023/06/17 08:56:28;;;;;;;11.95;5.20;;;23.20;62.60;;;;;;5000760;28;20038;-72
2023/06/17 08:58:55;;;;;;;9.20;5.30;;;23.40;62.50;;;;;;5004437;28;20018;-73
2023/06/17 09:01:22;;;;;;;8.35;5.10;;;23.50;61.90;;;;;;5004263;28;20500;-73
2023/06/17 09:03:53;;;;;;;6.60;4.35;;;23.60;60.90;;;;;;4999391;28;20022;-74
2023/06/17 09:06:20;;;;;;;9.35;5.10;;;23.60;60.00;;;;;;5002318;28;20384;-74
2023/06/17 09:08:47;;;;;;;7.78;5.18;;;23.60;58.60;;;;;;4986717;28;20029;-74
2023/06/17 09:11:13;;;;;;;6.93;4.95;;;23.60;58.30;;;;;;5006109;28;21056;-74
2023/06/17 09:13:39;;;;;;;11.15;4.75;;;23.60;58.30;;;;;;4988953;28;20058;-73
2023/06/17 09:16:05;;;;;;;7.15;4.47;;;23.70;57.50;;;;;;5007697;28;20436;-72
2023/06/17 09:18:34;;;;;;;7.97;4.05;;;23.70;57.90;;;;;;5006406;28;20809;-73
2023/06/17 09:21:03;;;;;;;4.95;3.72;;;23.80;58.10;;;;;;5004861;28;20026;-74
2023/06/17 09:23:29;;;;;;;5.15;3.22;;;23.90;54.90;;;;;;5001835;28;20298;-74
2023/06/17 09:26:04;;;;;;;7.00;3.70;;;24.00;53.10;;;;;;4987759;28;20026;-73
2023/06/17 09:28:31;;;;;;;4.00;3.47;;;24.10;53.10;;;;;;5005623;28;20117;-73
2023/06/17 09:30:59;;;;;;;6.82;3.78;;;24.20;52.90;;;;;;4987252;28;20038;-74
2023/06/17 09:33:26;;;;;;;6.00;3.53;;;24.30;51.90;;;;;;5009117;28;20034;-74
2023/06/17 09:35:59;;;;;;;6.28;3.35;;;24.40;51.30;;;;;;5007863;28;20025;-74
2023/06/17 09:38:25;;;;;;;6.22;3.30;;;24.50;51.10;;;;;;5005122;28;20126;-73
2023/06/17 09:40:51;;;;;;;5.65;3.30;;;24.50;50.70;;;;;;4989305;28;20030;-74
2023/06/17 09:43:17;;;;;;;5.55;3.35;;;24.50;50.80;;;;;;4999534;28;20354;-73
2023/06/17 09:45:44;;;;;;;7.55;4.05;;;24.60;50.50;;;;;;5005617;28;20073;-73
2023/06/17 09:48:10;;;;;;;5.28;3.92;;;24.50;50.80;;;;;;4983408;28;20027;-73
2023/06/17 09:50:37;;;;;;;4.70;3.92;;;24.60;50.80;;;;;;5005660;28;20109;-72
2023/06/17 09:53:05;;;;;;;5.00;3.53;;;24.60;49.90;;;;;;4989935;28;20038;-74
2023/06/17 09:55:31;;;;;;;6.57;3.50;;;24.60;49.20;;;;;;5008793;28;20026;-74
2023/06/17 09:57:59;;;;;;;10.65;4.35;;;24.60;50.60;;;;;;5005448;28;20408;-73
2023/06/17 10:00:26;;;;;;;7.90;3.50;;;24.70;50.60;;;;;;4987164;28;20457;-73
2023/06/17 10:02:53;;;;;;;8.18;2.90;;;25.00;49.60;;;;;;5001200;28;20049;-74
2023/06/17 10:05:23;;;;;;;5.35;3.00;;;25.00;46.90;;;;;;4987835;28;20029;-73
2023/06/17 10:07:49;;;;;;;3.53;2.78;;;25.10;47.20;;;;;;5011650;28;20022;-73
2023/06/17 10:10:16;;;;;;;4.22;3.08;;;25.00;47.10;;;;;;5009774;28;20499;-73
2023/06/17 10:12:44;;;;;;;4.50;3.33;;;25.00;48.30;;;;;;4990573;28;20030;-72
2023/06/17 10:15:17;;;;;;;5.47;3.60;;;25.10;49.20;;;;;;4994699;28;20488;-74
2023/06/17 10:17:45;;;;;;;9.52;3.40;;;25.20;49.70;;;;;;5007084;28;20025;-74
2023/06/17 10:20:14;;;;;;;4.70;3.83;;;25.30;49.80;;;;;;5011322;28;20033;-73
2023/06/17 10:22:41;;;;;;;5.82;3.80;;;25.40;49.60;;;;;;4993510;28;20025;-74
2023/06/17 10:25:10;;;;;;;7.22;3.90;;;25.40;49.00;;;;;;5007523;28;20462;-74
2023/06/17 10:27:36;;;;;;;4.63;3.90;;;25.40;49.20;;;;;;5008970;28;20034;-75
2023/06/17 10:30:22;;;;;;;7.80;3.75;;;25.40;49.20;;;;;;5008722;28;20022;-75
2023/06/17 10:32:56;;;;;;;4.90;3.58;;;25.40;49.10;;;;;;5005004;28;20030;-75
2023/06/17 10:35:22;;;;;;;4.10;3.58;;;25.40;49.20;;;;;;5002358;28;20029;-75
2023/06/17 10:37:48;;;;;;;7.65;4.18;;;25.40;49.20;;;;;;5009361;28;20022;-75
2023/06/17 10:40:31;;;;;;;5.03;3.50;;;25.40;49.00;;;;;;5008700;28;20025;-76
2023/06/17 10:43:03;;;;;;;9.40;3.73;;;25.40;49.20;;;;;;5007934;28;20099;-75
2023/06/17 10:45:46;;;;;;;6.97;3.65;;;25.40;49.30;;;;;;5007101;28;20563;-75
2023/06/17 10:48:22;;;;;;;9.93;4.07;;;25.50;49.80;;;;;;4986397;28;20026;-75
2023/06/17 10:50:52;;;;;;;5.75;3.60;;;25.60;50.60;;;;;;5004200;28;20060;-74
2023/06/17 10:53:25;;;;;;;6.00;3.80;;;25.70;50.10;;;;;;5008378;28;20030;-74
2023/06/17 10:55:50;;;;;;;7.72;3.75;;;25.70;49.70;;;;;;4999143;28;20540;-75
2023/06/17 10:58:16;;;;;;;3.38;3.00;;;25.80;49.40;;;;;;5007550;28;20032;-75
2023/06/17 11:00:42;;;;;;;5.13;3.78;;;25.80;49.10;;;;;;5009561;28;20033;-74
2023/06/17 11:03:09;;;;;;;4.13;3.50;;;25.80;49.30;;;;;;5005246;28;20030;-73
2023/06/17 11:05:35;;;;;;;4.80;3.22;;;25.80;49.20;;;;;;5007298;28;20061;-75
2023/06/17 11:08:05;;;;;;;5.93;3.88;;;25.90;49.30;;;;;;4993325;28;20029;-74
2023/06/17 11:10:31;;;;;;;6.10;3.97;;;25.80;49.00;;;;;;5007054;28;20037;-74
2023/06/17 11:12:57;;;;;;;6.30;3.47;;;25.70;49.10;;;;;;5000249;28;20333;-76
2023/06/17 11:15:23;;;;;;;5.25;3.70;;;25.70;49.40;;;;;;5003879;28;20038;-74
2023/06/17 11:17:59;;;;;;;4.47;3.78;;;25.60;49.10;;;;;;5008426;28;20075;-75
2023/06/17 11:20:25;;;;;;;5.43;3.97;;;25.60;49.40;;;;;;5009525;28;20172;-74
2023/06/17 11:22:50;;;;;;;5.43;3.83;;;25.70;49.60;;;;;;5012601;28;20104;-75
2023/06/17 11:25:18;;;;;;;9.27;4.18;;;25.60;49.40;;;;;;4991155;28;20037;-75
2023/06/17 11:27:45;;;;;;;7.13;4.22;;;25.70;49.90;;;;;;5004460;28;20173;-74
2023/06/17 11:30:13;;;;;;;6.63;3.85;;;25.70;49.90;;;;;;5006818;28;20022;-73
2023/06/17 11:32:41;;;;;;;4.97;4.07;;;25.80;49.90;;;;;;5008962;28;20071;-74
2023/06/17 11:35:08;;;;;;;6.68;4.53;;;25.90;49.70;;;;;;5011232;28;20585;-73
2023/06/17 11:37:34;;;;;;;8.18;3.60;;;26.00;49.50;;;;;;4992221;28;20095;-74
2023/06/17 11:40:00;;;;;;;8.02;3.75;;;26.00;49.40;;;;;;5011878;28;20526;-74
2023/06/17 11:42:26;;;;;;;4.75;4.22;;;26.00;49.30;;;;;;4995466;28;20667;-74
2023/06/17 11:44:52;;;;;;;5.25;4.28;;;26.00;49.00;;;;;;4991176;28;20152;-74
2023/06/17 11:47:18;;;;;;;6.82;3.90;;;26.00;48.60;;;;;;4988886;28;20030;-74
2023/06/17 11:49:45;;;;;;;8.63;4.07;;;26.00;48.40;;;;;;4993504;28;20361;-74
2023/06/17 11:52:11;;;;;;;4.53;3.70;;;26.00;48.40;;;;;;4989248;28;20022;-74
2023/06/17 11:54:50;;;;;;;5.80;3.92;;;26.00;48.40;;;;;;4989806;28;20088;-74
2023/06/17 11:57:21;;;;;;;5.15;4.20;;;26.00;48.60;;;;;;5009173;28;20025;-75
2023/06/17 11:59:47;;;;;;;7.53;4.00;;;26.10;49.10;;;;;;5008479;28;20443;-75
2023/06/17 12:02:14;;;;;;;6.28;4.55;;;26.20;49.20;;;;;;4992399;28;20025;-75
2023/06/17 12:04:43;;;;;;;4.05;3.30;;;26.20;49.00;;;;;;5009465;28;20030;-75
2023/06/17 12:07:09;;;;;;;5.72;3.90;;;26.30;50.10;;;;;;4993679;28;20026;-75
2023/06/17 12:09:56;;;;;;;6.95;3.95;;;26.30;49.40;;;;;;5005826;28;20139;-75
2023/06/17 12:12:26;;;;;;;4.82;3.97;;;26.40;49.30;;;;;;5004710;28;20543;-74
2023/06/17 12:14:57;;;;;;;5.03;3.80;;;26.30;49.40;;;;;;5011583;28;20109;-74
2023/06/17 12:17:25;;;;;;;7.00;4.20;;;26.20;49.40;;;;;;5013953;28;20056;-76
2023/06/17 12:19:50;;;;;;;7.88;4.20;;;26.20;49.40;;;;;;5002498;28;20093;-75
2023/06/17 12:22:16;;;;;;;6.75;4.20;;;26.20;49.50;;;;;;5007539;28;20097;-75
2023/06/17 12:24:41;;;;;;;6.72;3.95;;;26.10;49.40;;;;;;5000711;28;20029;-74
2023/06/17 12:27:08;;;;;;;6.15;3.67;;;26.00;49.70;;;;;;4991108;28;20061;-74
2023/06/17 12:29:34;;;;;;;7.38;4.20;;;26.00;49.80;;;;;;5005789;28;20022;-74
2023/06/17 12:31:59;;;;;;;9.23;4.25;;;26.10;49.50;;;;;;5007683;28;20034;-74
2023/06/17 12:34:25;;;;;;;7.18;4.18;;;26.00;49.50;;;;;;5009746;28;20392;-73
2023/06/17 12:36:51;;;;;;;7.43;4.50;;;26.10;49.30;;;;;;5012418;28;20021;-74
2023/06/17 12:39:16;;;;;;;6.05;4.00;;;26.10;49.30;;;;;;5011007;28;20029;-75
2023/06/17 12:41:43;;;;;;;8.95;3.92;;;26.20;49.10;;;;;;4993172;28;20480;-74
2023/06/17 12:44:09;;;;;;;5.40;4.28;;;26.10;49.30;;;;;;5013289;28;20026;-74